createdAt,value
2023-06-17T05:05:16.240Z,99766.38
2023-06-17T05:08:19.596Z,99763.47
2023-06-17T05:11:22.324Z,99774.38
2023-06-17T05:14:25.544Z,99772.47
2023-06-17T05:17:28.977Z,99775.09
2023-06-17T05:20:32.800Z,99784.28
2023-06-17T05:23:35.766Z,99798.31
2023-06-17T05:26:38.810Z,99798.44
2023-06-17T05:29:41.600Z,99798.69
2023-06-17T05:32:45.041Z,99809.13
2023-06-17T05:35:47.737Z,99811.78
2023-06-17T05:38:50.650Z,99809.78
2023-06-17T05:41:53.509Z,99805.19
2023-06-17T05:44:56.605Z,99815.59
2023-06-17T05:47:59.733Z,99823.16
2023-06-17T05:51:03.662Z,99824.94
2023-06-17T05:54:06.654Z,99820.69
2023-06-17T05:57:10.033Z,99824.31
2023-06-17T06:00:13.440Z,99829.97
2023-06-17T06:03:16.132Z,99830.25
2023-06-17T06:06:19.187Z,99844.62
2023-06-17T06:09:21.837Z,99834.91
2023-06-17T06:12:24.877Z,99832.63
2023-06-17T06:15:28.103Z,99833.94
2023-06-17T06:18:31.178Z,99845.59
2023-06-17T06:21:33.801Z,99846.50
2023-06-17T06:24:37.343Z,99845.44
2023-06-17T06:27:40.230Z,99844.44
2023-06-17T06:30:44.261Z,99843.09
2023-06-17T06:33:48.254Z,99841.06
2023-06-17T06:36:51.362Z,99848.94
2023-06-17T06:39:54.036Z,99839.47
2023-06-17T06:42:57.351Z,99839.91
2023-06-17T06:46:00.255Z,99847.94
2023-06-17T06:49:03.345Z,99846.56
2023-06-17T06:52:06.691Z,99842.91
2023-06-17T06:55:10.131Z,99848.41
2023-06-17T06:58:13.939Z,99849.66
2023-06-17T07:01:17.385Z,99845.12
2023-06-17T07:04:24.308Z,99855.13
2023-06-17T07:07:28.795Z,99852.44
2023-06-17T07:10:32.115Z,99844.81
2023-06-17T07:13:37.131Z,99851.03
2023-06-17T07:16:39.862Z,99852.66
2023-06-17T07:19:43.449Z,99859.62
2023-06-17T07:22:46.345Z,99857.53
2023-06-17T07:25:52.937Z,99856.09
2023-06-17T07:28:57.427Z,99856.69
2023-06-17T07:32:01.206Z,99860.56
2023-06-17T07:35:04.450Z,99851.78
2023-06-17T07:38:07.496Z,99841.19
2023-06-17T07:41:11.198Z,99851.78
2023-06-17T07:44:14.165Z,99852.59
2023-06-17T07:47:17.293Z,99843.25
2023-06-17T07:50:20.541Z,99835.31
2023-06-17T07:53:24.397Z,99836.34
2023-06-17T07:56:28.677Z,99849.91
2023-06-17T07:59:31.903Z,99842.06
2023-06-17T08:02:34.905Z,99834.37
2023-06-17T08:05:37.913Z,99839.56
2023-06-17T08:08:41.819Z,99848.53
2023-06-17T08:11:44.885Z,99843.50
2023-06-17T08:14:47.537Z,99836.13
2023-06-17T08:17:51.881Z,99841.69
2023-06-17T08:20:54.683Z,99842.41
2023-06-17T08:23:57.739Z,99842.47
2023-06-17T08:27:00.657Z,99835.72
2023-06-17T08:30:03.922Z,99841.63
2023-06-17T08:33:06.752Z,99846.56
2023-06-17T08:36:09.673Z,99847.06
2023-06-17T08:39:12.717Z,99851.81
2023-06-17T08:42:16.371Z,99846.69
2023-06-17T08:45:20.704Z,99846.34
2023-06-17T08:48:23.770Z,99837.41
2023-06-17T08:51:27.079Z,99834.25
2023-06-17T08:54:39.525Z,99855.31
2023-06-17T09:12:16.467Z,99851.03
2023-06-17T09:15:19.514Z,99838.56
2023-06-17T09:18:22.228Z,99837.34
2023-06-17T09:21:27.073Z,99855.81
2023-06-17T09:24:31.890Z,99852.47
2023-06-17T09:27:34.967Z,99858.88
2023-06-17T09:30:38.547Z,99866.28
2023-06-17T09:33:44.803Z,99860.12
2023-06-17T09:36:53.087Z,99866.63
2023-06-17T09:39:56.516Z,99866.53
2023-06-17T09:43:09.472Z,99872.97
2023-06-17T09:46:30.674Z,99859.28
2023-06-17T09:49:34.693Z,99862.41
2023-06-17T09:52:38.540Z,99865.88
2023-06-17T09:55:42.742Z,99854.06
2023-06-17T09:58:46.415Z,99847.69
2023-06-17T10:01:50.085Z,99846.63
2023-06-17T10:04:53.640Z,99857.88
2023-06-17T10:07:57.772Z,99852.38
2023-06-17T10:11:01.749Z,99865.16
2023-06-17T10:14:08.601Z,99857.50
2023-06-17T10:17:12.529Z,99864.28
2023-06-17T10:20:15.774Z,99850.25
2023-06-17T10:23:22.024Z,99849.44
2023-06-17T10:26:25.087Z,99857.13
2023-06-17T10:29:28.677Z,99842.88
2023-06-17T10:32:32.050Z,99854.09
2023-06-17T10:35:43.805Z,99847.16
2023-06-17T10:38:55.789Z,99857.25
2023-06-17T10:42:01.992Z,99858.31
2023-06-17T10:45:13.672Z,99853.34
2023-06-17T10:48:29.522Z,99856.87
2023-06-17T10:51:41.341Z,99852.91
2023-06-17T10:54:56.740Z,99854.72
2023-06-17T10:57:59.478Z,99847.13
2023-06-17T11:01:07.758Z,99846.31
2023-06-17T11:04:11.704Z,99857.22
2023-06-17T11:07:14.859Z,99846.31
2023-06-17T11:10:18.471Z,99838.50
2023-06-17T17:04:51.663Z,99842.78
2023-06-17T17:07:55.140Z,99842.66
2023-06-17T17:10:57.757Z,99835.66
2023-06-17T17:14:01.140Z,99836.09
2023-06-17T17:17:04.185Z,99841.09
2023-06-17T17:20:07.959Z,99843.69
2023-06-17T17:23:11.891Z,99839.25
2023-06-17T17:26:14.918Z,99843.69
2023-06-17T17:29:17.576Z,99849.25
2023-06-17T17:32:20.665Z,99846.75
2023-06-17T17:35:23.566Z,99846.31
2023-06-17T17:38:26.506Z,99855.16
2023-06-17T17:41:29.818Z,99853.94
2023-06-17T17:44:32.868Z,99853.09
2023-06-17T17:47:36.029Z,99846.31
2023-06-17T17:50:38.993Z,99857.47
2023-06-17T17:53:41.636Z,99866.81
2023-06-17T17:56:44.575Z,99863.63
2023-06-17T17:59:47.350Z,99860.38
2023-06-17T18:02:50.466Z,99862.50
2023-06-17T18:05:53.456Z,99863.78
2023-06-17T18:08:57.217Z,99867.12
2023-06-17T18:12:00.197Z,99872.03
2023-06-17T18:15:02.854Z,99862.94
2023-06-17T18:18:05.948Z,99859.72
2023-06-17T18:21:08.791Z,99868.69
2023-06-17T18:24:11.852Z,99879.06
2023-06-17T18:27:30.888Z,99887.00
2023-06-17T18:30:38.692Z,99882.16
2023-06-17T18:33:41.476Z,99894.41
2023-06-17T18:36:44.383Z,99896.91
2023-06-17T18:39:47.558Z,99907.94
2023-06-17T18:42:50.672Z,99908.41
2023-06-17T18:45:53.408Z,99910.41
2023-06-17T18:48:56.512Z,99908.87
2023-06-17T18:51:59.207Z,99918.22
2023-06-17T18:55:02.305Z,99916.16
2023-06-17T18:58:05.392Z,99914.59
2023-06-17T19:01:08.506Z,99920.09
2023-06-17T19:04:11.887Z,99926.03
2023-06-17T19:07:14.917Z,99925.66
2023-06-17T19:10:17.575Z,99923.59
2023-06-17T19:13:20.523Z,99929.50
2023-06-17T19:16:23.303Z,99933.13
2023-06-17T19:19:26.352Z,99939.47
2023-06-17T19:22:28.987Z,99942.84
2023-06-17T19:25:31.978Z,99941.78
2023-06-17T19:28:35.241Z,99938.63
2023-06-17T19:31:38.303Z,99945.38
2023-06-17T19:34:41.024Z,99954.75
2023-06-17T19:37:44.075Z,99957.59
2023-06-17T19:40:46.897Z,99955.59
2023-06-17T19:43:54.686Z,99952.44
2023-06-17T19:46:58.024Z,99951.09
2023-06-17T19:50:01.281Z,99949.72
2023-06-17T19:53:04.035Z,99956.03
2023-06-17T19:56:07.601Z,99955.59
2023-06-17T19:59:10.274Z,99963.47
2023-06-17T21:30:52.965Z,99971.53
2023-06-17T21:33:55.756Z,99970.56
2023-06-17T21:36:59.882Z,99965.91
2023-06-17T21:40:02.530Z,99964.63
2023-06-17T21:43:05.586Z,99967.34
2023-06-17T21:46:08.397Z,99968.00
2023-06-17T21:49:11.676Z,99972.59
2023-06-17T21:52:14.312Z,99968.34
2023-06-17T21:55:17.296Z,99963.28
2023-06-17T21:58:20.091Z,99975.47
2023-06-17T22:01:23.133Z,99973.25
2023-06-17T22:04:26.548Z,99979.09
2023-06-17T22:07:29.247Z,99979.88
2023-06-17T22:10:32.248Z,99970.41
2023-06-17T22:13:35.020Z,99973.88
2023-06-17T22:16:39.397Z,99976.72
2023-06-17T22:19:42.130Z,99976.41
2023-06-17T22:22:45.044Z,99977.66
2023-06-17T22:25:47.719Z,99982.41
2023-06-17T22:28:50.834Z,99976.88
2023-06-17T22:31:53.450Z,99976.09
2023-06-17T22:34:58.626Z,99968.84
2023-06-17T22:38:01.192Z,99980.66
2023-06-17T22:41:04.199Z,99988.72
2023-06-17T22:44:06.826Z,99981.00
2023-06-17T22:47:09.993Z,99992.19
2023-06-17T22:50:12.752Z,99984.63
2023-06-17T22:53:15.665Z,99983.03
2023-06-17T22:56:18.335Z,99979.25
2023-06-17T22:59:21.320Z,99984.28
2023-06-17T23:02:24.003Z,99986.66
2023-06-17T23:05:27.136Z,99985.56
2023-06-17T23:08:30.039Z,99983.00
2023-06-17T23:11:33.114Z,99984.16
2023-06-17T23:14:35.840Z,99986.81
2023-06-17T23:17:39.323Z,99972.75
2023-06-17T23:20:42.121Z,99985.53
2023-06-17T23:23:45.129Z,99979.34
2023-06-17T23:26:48.340Z,99989.16
2023-06-17T23:29:51.534Z,99990.03
2023-06-17T23:32:54.392Z,99983.41
2023-06-17T23:35:57.460Z,99982.19
2023-06-17T23:39:03.921Z,99986.31
2023-06-17T23:42:07.451Z,99991.97
2023-06-17T23:45:13.082Z,99994.53
2023-06-17T23:48:16.492Z,99995.09
2023-06-17T23:51:22.062Z,99995.03
2023-06-17T23:54:25.058Z,99993.00
2023-06-17T23:57:27.863Z,99997.47
